Time;durP1;ratioP1;P1;durP2;ratioP2;P2;SDS_P1;SDS_P2;PMS_P1;PMS_P2;Temp;Humidity;BMP_temperature;BMP_pressure;BME280_temperature;BME280_humidity;BME280_pressure;Samples;Min_cycle;Max_cycle;Signal;HPM_P1;HPM_P2
2021/11/07 00:04:06;;;;;;;;;;;10.70;99.90;;;;;;5079860;28;19920;-67
2021/11/07 00:06:41;;;;;;;;;;;10.80;99.90;;;;;;5075719;28;19931;-67
2021/11/07 00:11:37;;;;;;;;;;;10.80;99.90;;;;;;5075362;28;19916;-67
2021/11/07 00:14:05;;;;;;;;;;;10.90;99.90;;;;;;5075654;28;19956;-67
2021/11/07 00:16:34;;;;;;;;;;;10.90;99.90;;;;;;5075440;28;20378;-68
2021/11/07 00:19:15;;;;;;;;;;;10.80;99.90;;;;;;5086512;28;19923;-67
2021/11/07 00:22:01;;;;;;;;;;;10.90;99.90;;;;;;5070896;28;19920;-67
2021/11/07 00:27:04;;;;;;;;;;;11.00;99.90;;;;;;5074529;28;19927;-67
2021/11/07 00:29:34;;;;;;;;;;;11.00;99.90;;;;;;5073636;28;19916;-67
2021/11/07 00:32:12;;;;;;;;;;;11.10;99.90;;;;;;5074778;28;19924;-67
2021/11/07 00:37:16;;;;;;;;;;;11.10;99.90;;;;;;5074857;28;20531;-67
2021/11/07 00:42:39;;;;;;;;;;;11.00;99.90;;;;;;5073303;28;19923;-67
2021/11/07 00:45:20;;;;;;;;;;;11.10;99.90;;;;;;5070753;28;19930;-67
2021/11/07 00:48:35;;;;;;;;;;;11.10;99.90;;;;;;5074542;28;20326;-67
2021/11/07 00:53:24;;;;;;;;;;;11.20;99.90;;;;;;5074584;28;19923;-67
2021/11/07 00:56:36;;;;;;;;;;;11.30;99.90;;;;;;5087556;28;20365;-67
2021/11/07 00:59:07;;;;;;;;;;;11.40;99.90;;;;;;5059414;28;19969;-67
2021/11/07 01:01:26;;;;;;;;;;;11.40;99.90;;;;;;5071949;28;20363;-67
2021/11/07 01:03:52;;;;;;;;;;;11.40;99.90;;;;;;5073420;28;19934;-67
2021/11/07 01:06:18;;;;;;;;;;;11.40;99.90;;;;;;5091070;28;19920;-67
2021/11/07 01:08:44;;;;;;;;;;;11.40;99.90;;;;;;5074138;28;19916;-67
2021/11/07 01:11:09;;;;;;;;;;;11.40;99.90;;;;;;5074690;28;20002;-68
2021/11/07 01:13:35;;;;;;;;;;;11.40;99.90;;;;;;5069096;28;20007;-68
2021/11/07 01:16:01;;;;;;;;;;;11.50;99.90;;;;;;5068750;28;19927;-67
2021/11/07 01:18:26;;;;;;;;;;;11.40;99.90;;;;;;5074799;28;19916;-67
2021/11/07 01:20:52;;;;;;;;;;;11.40;99.90;;;;;;5074725;28;19920;-67
2021/11/07 01:23:24;;;;;;;;;;;11.40;99.90;;;;;;5075128;28;20451;-67
2021/11/07 01:25:54;;;;;;;;;;;11.30;99.90;;;;;;5087551;28;20258;-67
2021/11/07 01:28:21;;;;;;;;;;;11.30;99.90;;;;;;5073068;28;19916;-67
2021/11/07 01:30:53;;;;;;;;;;;11.30;99.90;;;;;;5091506;28;19995;-67
2021/11/07 01:33:22;;;;;;;;;;;11.30;99.90;;;;;;5078352;28;20026;-67
2021/11/07 01:38:17;;;;;;;;;;;11.40;99.90;;;;;;5071973;28;20548;-67
2021/11/07 01:43:27;;;;;;;;;;;11.50;99.90;;;;;;5074125;28;19920;-67
2021/11/07 01:46:43;;;;;;;;;;;11.60;99.90;;;;;;5072334;28;20507;-67
2021/11/07 01:48:45;;;;;;;;;;;11.60;99.90;;;;;;5047749;28;19923;-67
2021/11/07 01:51:11;;;;;;;;;;;11.60;99.90;;;;;;5074155;28;19916;-67
2021/11/07 01:53:38;;;;;;;;;;;11.50;99.90;;;;;;5072347;28;20269;-67
2021/11/07 01:56:07;;;;;;;;;;;11.40;99.90;;;;;;5071602;28;19962;-67
2021/11/07 01:58:33;;;;;;;;;;;11.60;99.90;;;;;;5070416;28;19924;-67
2021/11/07 02:00:58;;;;;;;;;;;11.50;99.90;;;;;;5073994;28;19946;-67
2021/11/07 02:03:24;;;;;;;;;;;11.50;99.90;;;;;;5072104;28;19923;-67
2021/11/07 02:05:50;;;;;;;;;;;11.50;99.90;;;;;;5072321;28;20349;-67
2021/11/07 02:08:17;;;;;;;;;;;11.50;99.90;;;;;;5069475;28;20054;-67
2021/11/07 02:10:43;;;;;;;;;;;11.40;99.90;;;;;;5072804;28;19942;-67
2021/11/07 02:13:08;;;;;;;;;;;11.30;99.90;;;;;;5071122;28;19919;-67
2021/11/07 02:15:34;;;;;;;;;;;11.40;99.90;;;;;;5076111;28;19916;-67
2021/11/07 02:18:00;;;;;;;;;;;11.30;99.90;;;;;;5062496;28;19924;-67
2021/11/07 02:20:36;;;;;;;;;;;11.20;99.90;;;;;;5072533;28;20265;-67
2021/11/07 02:23:06;;;;;;;;;;;11.20;99.90;;;;;;5072734;28;19924;-67
2021/11/07 02:25:32;;;;;;;;;;;11.10;99.90;;;;;;5064589;28;19920;-67
2021/11/07 02:27:58;;;;;;;;;;;11.00;99.90;;;;;;5072203;28;19916;-67
2021/11/07 02:30:23;;;;;;;;;;;11.00;99.90;;;;;;5071117;28;19919;-67
2021/11/07 02:32:50;;;;;;;;;;;11.00;99.90;;;;;;5071912;28;20405;-67
2021/11/07 02:35:16;;;;;;;;;;;11.00;99.90;;;;;;5071295;28;19920;-67
2021/11/07 02:37:43;;;;;;;;;;;10.90;99.90;;;;;;5071828;28;19915;-67
2021/11/07 02:40:09;;;;;;;;;;;10.90;99.90;;;;;;5073970;28;19946;-67
2021/11/07 02:42:35;;;;;;;;;;;10.90;99.90;;;;;;5064618;28;19916;-67
2021/11/07 02:45:01;;;;;;;;;;;10.90;99.90;;;;;;5073969;28;19963;-67
2021/11/07 02:47:27;;;;;;;;;;;10.80;99.90;;;;;;5073420;28;19923;-67
2021/11/07 02:49:52;;;;;;;;;;;10.80;99.90;;;;;;5090929;28;19924;-67
2021/11/07 02:52:18;;;;;;;;;;;10.80;99.90;;;;;;5073673;28;20011;-67
2021/11/07 02:54:43;;;;;;;;;;;10.80;99.90;;;;;;5068288;28;19916;-67
2021/11/07 02:57:11;;;;;;;;;;;10.90;99.90;;;;;;5068663;28;20305;-67
2021/11/07 02:59:40;;;;;;;;;;;11.00;99.90;;;;;;5060016;28;20377;-67
2021/11/07 03:02:06;;;;;;;;;;;10.90;99.90;;;;;;5076584;28;19920;-67
2021/11/07 03:04:32;;;;;;;;;;;10.90;99.90;;;;;;5060984;28;19951;-67
2021/11/07 03:06:58;;;;;;;;;;;10.90;99.90;;;;;;5070719;28;19954;-67
2021/11/07 03:09:28;;;;;;;;;;;10.90;99.90;;;;;;5064740;28;19945;-67
2021/11/07 03:11:54;;;;;;;;;;;10.90;99.90;;;;;;5072750;28;20419;-67
2021/11/07 03:14:22;;;;;;;;;;;11.00;99.90;;;;;;5090336;28;19935;-67
2021/11/07 03:16:47;;;;;;;;;;;10.90;99.90;;;;;;5071505;28;19916;-68
2021/11/07 03:19:13;;;;;;;;;;;10.90;99.90;;;;;;5073572;28;19916;-68
2021/11/07 03:21:40;;;;;;;;;;;10.90;99.90;;;;;;5081412;28;20345;-67
2021/11/07 03:24:06;;;;;;;;;;;10.80;99.90;;;;;;5072383;28;20446;-67
2021/11/07 03:26:34;;;;;;;;;;;10.70;99.90;;;;;;5062939;28;19923;-67
2021/11/07 03:29:02;;;;;;;;;;;10.70;99.90;;;;;;5070963;28;19916;-68
2021/11/07 03:34:25;;;;;;;;;;;10.80;99.90;;;;;;5073220;28;19920;-68
2021/11/07 03:36:52;;;;;;;;;;;10.70;99.90;;;;;;5071101;28;19924;-67
2021/11/07 03:39:19;;;;;;;;;;;10.70;99.90;;;;;;5071888;28;19947;-67
2021/11/07 03:41:45;;;;;;;;;;;10.60;99.90;;;;;;5060144;28;20389;-67
2021/11/07 03:44:11;;;;;;;;;;;10.60;99.90;;;;;;5062369;28;19924;-67
2021/11/07 03:46:37;;;;;;;;;;;10.50;99.90;;;;;;5076137;28;20021;-67
2021/11/07 03:49:04;;;;;;;;;;;10.50;99.90;;;;;;5075599;28;19920;-67
2021/11/07 03:51:30;;;;;;;;;;;10.40;99.90;;;;;;5074809;28;20315;-67
2021/11/07 03:53:58;;;;;;;;;;;10.30;99.90;;;;;;5075194;28;20013;-67
2021/11/07 03:56:24;;;;;;;;;;;10.30;99.90;;;;;;5075188;28;19920;-67
2021/11/07 03:58:49;;;;;;;;;;;10.40;99.90;;;;;;5073774;28;19917;-67
2021/11/07 04:01:15;;;;;;;;;;;10.30;99.90;;;;;;5061793;28;20361;-67
2021/11/07 04:03:40;;;;;;;;;;;10.30;99.90;;;;;;5059259;28;19916;-67
2021/11/07 04:06:06;;;;;;;;;;;10.30;99.90;;;;;;5074544;28;19935;-67
2021/11/07 04:08:31;;;;;;;;;;;10.30;99.90;;;;;;5075053;28;19924;-67
2021/11/07 04:10:57;;;;;;;;;;;10.30;99.90;;;;;;5091763;28;19999;-67
2021/11/07 04:13:22;;;;;;;;;;;10.30;99.90;;;;;;5074150;28;19928;-67
2021/11/07 04:15:48;;;;;;;;;;;10.30;99.90;;;;;;5060822;28;20061;-67
2021/11/07 04:18:13;;;;;;;;;;;10.30;99.90;;;;;;5086075;28;19916;-67
2021/11/07 04:20:39;;;;;;;;;;;10.20;99.90;;;;;;5075115;28;19916;-67
2021/11/07 04:23:04;;;;;;;;;;;10.30;99.90;;;;;;5069303;28;19999;-67
2021/11/07 04:25:30;;;;;;;;;;;10.30;99.90;;;;;;5082013;28;19916;-67
2021/11/07 04:27:56;;;;;;;;;;;10.30;99.90;;;;;;5075697;28;20384;-67
2021/11/07 04:30:21;;;;;;;;;;;10.30;99.90;;;;;;5075586;28;19920;-67
2021/11/07 04:32:47;;;;;;;;;;;10.30;99.90;;;;;;5074554;28;20454;-67
2021/11/07 04:35:12;;;;;;;;;;;10.30;99.90;;;;;;5074296;28;20324;-67
2021/11/07 04:37:40;;;;;;;;;;;10.30;99.90;;;;;;5073014;28;20002;-67
2021/11/07 04:40:06;;;;;;;;;;;10.20;99.90;;;;;;5074090;28;19923;-67
2021/11/07 04:42:32;;;;;;;;;;;10.10;99.90;;;;;;5074427;28;19916;-68
2021/11/07 04:44:57;;;;;;;;;;;10.10;99.90;;;;;;5074466;28;20074;-68
2021/11/07 04:47:23;;;;;;;;;;;10.00;99.90;;;;;;5069953;28;19920;-67
2021/11/07 04:49:51;;;;;;;;;;;9.90;99.90;;;;;;5069566;22;19960;-67
2021/11/07 04:52:17;;;;;;;;;;;9.80;99.90;;;;;;5045988;28;20002;-67
2021/11/07 04:54:43;;;;;;;;;;;9.80;99.90;;;;;;5047479;28;19964;-67
2021/11/07 04:57:08;;;;;;;;;;;9.70;99.90;;;;;;5049545;28;19923;-67
2021/11/07 04:59:34;;;;;;;;;;;9.60;99.90;;;;;;5051029;28;20376;-67
2021/11/07 05:01:59;;;;;;;;;;;9.70;99.90;;;;;;5050940;28;19916;-67
2021/11/07 05:04:25;;;;;;;;;;;9.60;99.90;;;;;;5051594;28;20020;-67
2021/11/07 05:06:52;;;;;;;;;;;9.70;99.90;;;;;;5039934;28;19952;-67
2021/11/07 05:09:18;;;;;;;;;;;9.70;99.90;;;;;;5053836;28;19932;-67
2021/11/07 05:11:44;;;;;;;;;;;9.70;99.90;;;;;;5051025;28;20022;-67
2021/11/07 05:14:10;;;;;;;;;;;9.70;99.90;;;;;;5050897;28;20103;-67
2021/11/07 05:16:35;;;;;;;;;;;9.60;99.90;;;;;;5050358;28;19920;-67
2021/11/07 05:19:02;;;;;;;;;;;9.70;99.90;;;;;;5050684;28;20003;-67
2021/11/07 05:21:28;;;;;;;;;;;9.80;99.90;;;;;;5050671;28;19989;-67
2021/11/07 05:23:53;;;;;;;;;;;9.70;99.90;;;;;;5048291;28;20522;-67
2021/11/07 05:26:19;;;;;;;;;;;9.70;99.90;;;;;;5049638;28;19917;-67
2021/11/07 05:28:44;;;;;;;;;;;9.70;99.90;;;;;;5051214;28;19916;-67
2021/11/07 05:31:10;;;;;;;;;;;9.70;99.90;;;;;;5050970;28;19939;-67
2021/11/07 05:33:36;;;;;;;;;;;9.60;99.90;;;;;;5050524;28;19924;-67
2021/11/07 05:36:03;;;;;;;;;;;9.60;99.90;;;;;;5052179;28;20400;-67
2021/11/07 05:38:28;;;;;;;;;;;9.60;99.90;;;;;;5067988;28;19920;-67
2021/11/07 05:40:54;;;;;;;;;;;9.60;99.90;;;;;;5043317;28;19931;-67
2021/11/07 05:43:21;;;;;;;;;;;9.60;99.90;;;;;;5031942;28;19929;-67
2021/11/07 05:45:48;;;;;;;;;;;9.60;99.90;;;;;;5041701;28;19917;-67
2021/11/07 05:48:13;;;;;;;;;;;9.50;99.90;;;;;;5051634;28;19925;-67
2021/11/07 05:50:39;;;;;;;;;;;9.50;99.90;;;;;;5047820;28;20431;-66
2021/11/07 05:53:04;;;;;;;;;;;9.70;99.90;;;;;;5051468;28;19942;-66
2021/11/07 05:55:30;;;;;;;;;;;9.70;99.90;;;;;;5051731;28;19916;-67
2021/11/07 05:57:55;;;;;;;;;;;9.60;99.90;;;;;;5030468;28;19940;-67
2021/11/07 06:00:21;;;;;;;;;;;9.50;99.90;;;;;;5035606;28;20025;-67
2021/11/07 06:02:47;;;;;;;;;;;9.50;99.90;;;;;;5057478;28;19917;-67
2021/11/07 06:05:16;;;;;;;;;;;9.40;99.90;;;;;;5052569;28;19931;-67
2021/11/07 06:07:42;;;;;;;;;;;9.40;99.90;;;;;;5050567;28;19916;-66
2021/11/07 06:10:08;;;;;;;;;;;9.30;99.90;;;;;;5050664;28;19917;-66
2021/11/07 06:12:33;;;;;;;;;;;9.40;99.90;;;;;;5049822;28;20373;-66
2021/11/07 06:14:59;;;;;;;;;;;9.30;99.90;;;;;;5048124;28;19921;-66
2021/11/07 06:17:25;;;;;;;;;;;9.20;99.90;;;;;;5062725;28;19923;-66
2021/11/07 06:19:50;;;;;;;;;;;9.30;99.90;;;;;;5052445;28;19921;-67
2021/11/07 06:22:16;;;;;;;;;;;9.30;99.90;;;;;;5052229;28;19959;-67
2021/11/07 06:24:41;;;;;;;;;;;9.30;99.90;;;;;;5050975;28;19916;-66
2021/11/07 06:27:07;;;;;;;;;;;9.30;99.90;;;;;;5051325;28;19920;-67
2021/11/07 06:29:33;;;;;;;;;;;9.30;99.90;;;;;;5057739;28;19925;-67
2021/11/07 06:31:59;;;;;;;;;;;9.30;99.90;;;;;;5045186;28;19970;-67
2021/11/07 06:34:28;;;;;;;;;;;9.30;99.90;;;;;;5050797;28;19917;-66
2021/11/07 06:36:53;;;;;;;;;;;9.30;99.90;;;;;;5050970;28;19921;-66
2021/11/07 06:39:20;;;;;;;;;;;9.30;99.90;;;;;;5056233;28;19974;-66
2021/11/07 06:41:45;;;;;;;;;;;9.30;99.90;;;;;;5052296;28;19920;-66
2021/11/07 06:44:12;;;;;;;;;;;9.40;99.90;;;;;;5071038;28;19966;-67
2021/11/07 06:46:37;;;;;;;;;;;9.40;99.90;;;;;;5055957;28;19971;-67
2021/11/07 06:49:04;;;;;;;;;;;9.30;99.90;;;;;;5050641;28;19933;-67
2021/11/07 06:51:30;;;;;;;;;;;9.30;99.90;;;;;;5043167;28;19916;-67
2021/11/07 06:53:55;;;;;;;;;;;9.20;99.90;;;;;;5066010;28;20494;-67
2021/11/07 06:56:21;;;;;;;;;;;9.00;99.90;;;;;;5050314;28;19939;-67
2021/11/07 06:58:46;;;;;;;;;;;9.00;99.90;;;;;;5052104;28;19951;-67
2021/11/07 07:01:12;;;;;;;;;;;9.00;99.90;;;;;;5050073;28;19974;-67
2021/11/07 07:03:37;;;;;;;;;;;8.90;99.90;;;;;;5050023;28;19916;-67
2021/11/07 07:06:03;;;;;;;;;;;8.80;99.90;;;;;;5050065;28;19917;-67
2021/11/07 07:08:38;;;;;;;;;;;8.80;99.90;;;;;;5050364;28;19916;-67
2021/11/07 07:11:06;;;;;;;;;;;8.90;99.90;;;;;;5051737;28;20346;-67
2021/11/07 07:16:41;;;;;;;;;;;8.90;99.90;;;;;;5006655;28;20000;-67
2021/11/07 07:34:43;;;;;;;;;;;9.40;99.90;;;;;;5054215;28;20636;-67
2021/11/07 07:37:09;;;;;;;;;;;9.40;99.90;;;;;;5053977;28;19964;-67
2021/11/07 07:39:34;;;;;;;;;;;9.30;99.90;;;;;;5048793;28;20544;-67
2021/11/07 07:42:00;;;;;;;;;;;9.30;99.90;;;;;;5053488;28;19924;-67
2021/11/07 07:44:25;;;;;;;;;;;9.20;99.90;;;;;;5054245;28;20354;-67
2021/11/07 07:46:51;;;;;;;;;;;9.10;99.90;;;;;;5047842;28;19917;-67
2021/11/07 07:49:18;;;;;;;;;;;9.00;99.90;;;;;;5049064;28;19978;-67
2021/11/07 07:51:45;;;;;;;;;;;9.00;99.90;;;;;;5052371;28;19916;-67
2021/11/07 07:54:11;;;;;;;;;;;9.00;99.90;;;;;;5033549;28;19967;-67
2021/11/07 07:56:36;;;;;;;;;;;9.00;99.90;;;;;;5050838;28;19920;-67
2021/11/07 07:59:03;;;;;;;;;;;9.10;99.90;;;;;;5049311;28;20412;-67
2021/11/07 08:01:28;;;;;;;;;;;9.10;99.90;;;;;;5053793;28;19959;-67
2021/11/07 08:03:54;;;;;;;;;;;9.10;99.90;;;;;;5052244;28;19959;-67
2021/11/07 08:06:20;;;;;;;;;;;9.00;99.90;;;;;;5053767;28;19917;-67
2021/11/07 08:08:46;;;;;;;;;;;9.00;99.90;;;;;;5054283;28;19966;-67
2021/11/07 08:11:11;;;;;;;;;;;9.10;99.90;;;;;;5053701;28;20011;-67
2021/11/07 08:13:37;;;;;;;;;;;9.10;99.90;;;;;;5052768;28;19925;-67
2021/11/07 08:16:02;;;;;;;;;;;9.10;99.90;;;;;;5053165;28;19924;-67
2021/11/07 08:18:28;;;;;;;;;;;9.10;99.90;;;;;;5052969;28;19924;-67
2021/11/07 08:20:54;;;;;;;;;;;9.10;99.90;;;;;;5053138;28;19924;-67
2021/11/07 08:23:22;;;;;;;;;;;9.10;99.90;;;;;;5052624;28;19916;-67
2021/11/07 08:25:48;;;;;;;;;;;9.10;99.90;;;;;;5053441;28;20328;-67
2021/11/07 08:28:16;;;;;;;;;;;9.20;99.90;;;;;;5053456;28;19917;-67
2021/11/07 08:30:42;;;;;;;;;;;9.20;99.90;;;;;;5052285;28;19917;-67
2021/11/07 08:33:08;;;;;;;;;;;9.30;99.90;;;;;;5052207;28;20289;-67
2021/11/07 08:35:38;;;;;;;;;;;9.40;99.90;;;;;;5052534;28;19924;-67
2021/11/07 08:38:11;;;;;;;;;;;9.60;99.90;;;;;;5053836;28;20061;-67
2021/11/07 08:40:43;;;;;;;;;;;9.90;99.90;;;;;;5053329;28;19917;-67
2021/11/07 08:54:20;;;;;;;;;;;10.10;99.90;;;;;;5042279;28;19923;-67
2021/11/07 08:54:32;;;;;;;;;;;10.80;99.90;;;;;;5051624;28;19928;-66
2021/11/07 09:05:05;;;;;;;;;;;10.50;99.90;;;;;;5049637;28;19917;-67
2021/11/07 09:07:40;;;;;;;;;;;10.40;99.90;;;;;;5049381;28;19940;-67
2021/11/07 09:10:17;;;;;;;;;;;10.20;99.90;;;;;;5052061;28;19924;-67
2021/11/07 09:12:42;;;;;;;;;;;10.20;99.90;;;;;;5047711;28;19924;-66
2021/11/07 09:15:08;;;;;;;;;;;10.30;99.90;;;;;;5047178;28;19921;-66
2021/11/07 09:17:33;;;;;;;;;;;10.10;99.90;;;;;;5052311;28;19952;-67
2021/11/07 09:20:05;;;;;;;;;;;10.00;99.90;;;;;;5033992;28;19917;-66
2021/11/07 09:22:39;;;;;;;;;;;10.10;99.90;;;;;;5035934;28;20470;-67
2021/11/07 09:25:10;;;;;;;;;;;10.10;99.90;;;;;;5016068;28;19923;-67
2021/11/07 09:30:08;;;;;;;;;;;10.00;99.90;;;;;;5051973;28;19999;-67
2021/11/07 09:35:15;;;;;;;;;;;9.90;99.90;;;;;;5051942;28;20512;-67
2021/11/07 09:37:47;;;;;;;;;;;10.00;99.90;;;;;;5052052;28;19916;-67
2021/11/07 09:40:15;;;;;;;;;;;10.10;99.90;;;;;;5051358;28;19955;-67
2021/11/07 09:45:28;;;;;;;;;;;10.30;99.90;;;;;;5049541;28;19916;-67
2021/11/07 09:47:59;;;;;;;;;;;10.20;99.90;;;;;;5048586;28;19920;-66
2021/11/07 09:50:25;;;;;;;;;;;10.40;99.90;;;;;;5049211;28;19925;-66
2021/11/07 09:52:53;;;;;;;;;;;10.60;99.90;;;;;;5049401;28;19927;-67
2021/11/07 09:55:21;;;;;;;;;;;10.60;99.90;;;;;;5052699;28;20262;-67
2021/11/07 09:57:50;;;;;;;;;;;10.70;99.90;;;;;;5050426;28;19924;-67
2021/11/07 10:00:20;;;;;;;;;;;10.70;99.90;;;;;;5049812;28;20534;-67
2021/11/07 10:02:46;;;;;;;;;;;10.70;99.90;;;;;;5042720;28;19916;-67
2021/11/07 10:05:12;;;;;;;;;;;10.80;99.90;;;;;;5048465;28;19921;-67
2021/11/07 10:07:40;;;;;;;;;;;10.70;99.90;;;;;;5040944;28;20438;-67
2021/11/07 10:10:25;;;;;;;;;;;10.80;99.90;;;;;;5039788;28;19923;-67
2021/11/07 10:12:52;;;;;;;;;;;10.90;99.90;;;;;;5043828;28;19944;-67
2021/11/07 10:15:25;;;;;;;;;;;10.90;99.90;;;;;;5040766;28;19963;-67
2021/11/07 10:17:57;;;;;;;;;;;11.00;99.90;;;;;;5021096;28;19967;-66
2021/11/07 10:20:39;;;;;;;;;;;11.00;99.90;;;;;;5047166;28;20370;-66
2021/11/07 10:23:12;;;;;;;;;;;11.10;99.90;;;;;;5047494;28;20374;-66
2021/11/07 10:25:42;;;;;;;;;;;11.10;99.90;;;;;;5045777;28;20567;-66
2021/11/07 10:28:12;;;;;;;;;;;11.20;99.90;;;;;;5039509;28;20362;-66
2021/11/07 10:30:43;;;;;;;;;;;11.20;99.90;;;;;;5039084;28;19921;-66
2021/11/07 10:33:19;;;;;;;;;;;11.20;99.90;;;;;;5022231;28;20329;-67
2021/11/07 10:36:41;;;;;;;;;;;11.10;99.90;;;;;;5039698;28;19917;-66
2021/11/07 10:44:19;;;;;;;;;;;11.00;99.90;;;;;;5048782;28;20274;-67
2021/11/07 10:52:25;;;;;;;;;;;11.20;99.90;;;;;;5038381;28;20003;-66
2021/11/07 10:54:51;;;;;;;;;;;11.30;99.90;;;;;;5042537;28;19963;-66
2021/11/07 10:57:17;;;;;;;;;;;11.40;99.90;;;;;;5038087;28;20010;-67
2021/11/07 11:00:01;;;;;;;;;;;11.40;99.90;;;;;;5025420;28;20054;-66
2021/11/07 11:02:46;;;;;;;;;;;11.50;99.90;;;;;;5039626;28;19920;-66
2021/11/07 11:05:13;;;;;;;;;;;11.50;99.90;;;;;;5043834;28;19917;-67
2021/11/07 11:07:48;;;;;;;;;;;11.40;99.90;;;;;;5037294;28;19947;-67
2021/11/07 11:10:18;;;;;;;;;;;11.40;99.90;;;;;;5044024;28;20007;-66
2021/11/07 11:13:07;;;;;;;;;;;11.50;99.90;;;;;;5044227;28;19921;-67
2021/11/07 11:15:48;;;;;;;;;;;11.30;99.90;;;;;;5045658;28;20503;-67
2021/11/07 11:34:19;;;;;;;;;;;11.30;99.90;;;;;;5046762;28;19924;-67
2021/11/07 11:36:52;;;;;;;;;;;11.50;99.90;;;;;;5046564;28;20385;-67
2021/11/07 11:39:27;;;;;;;;;;;11.70;99.90;;;;;;5046718;28;20076;-67
2021/11/07 11:42:01;;;;;;;;;;;11.90;99.90;;;;;;5050401;28;19921;-67
2021/11/07 11:44:28;;;;;;;;;;;12.10;99.90;;;;;;5048937;28;20474;-66
2021/11/07 11:47:31;;;;;;;;;;;12.20;99.90;;;;;;5048405;28;20380;-67
2021/11/07 11:50:20;;;;;;;;;;;12.30;99.90;;;;;;5035481;28;19932;-67
2021/11/07 11:52:52;;;;;;;;;;;12.50;99.90;;;;;;5044373;28;19928;-67
2021/11/07 11:55:30;;;;;;;;;;;12.50;99.90;;;;;;5032682;28;19920;-66
2021/11/07 12:04:05;;;;;;;;;;;12.60;99.90;;;;;;4968191;28;20334;-66
2021/11/07 12:12:04;;;;;;;;;;;12.70;99.90;;;;;;5052250;28;19921;-67
2021/11/07 12:17:02;;;;;;;;;;;12.60;99.90;;;;;;5048669;28;19925;-66
2021/11/07 12:19:45;;;;;;;;;;;12.60;99.90;;;;;;5046155;28;19974;-66
2021/11/07 12:22:11;;;;;;;;;;;12.50;99.90;;;;;;5050463;28;19917;-67
2021/11/07 12:24:58;;;;;;;;;;;12.60;99.90;;;;;;5052610;28;19916;-66
2021/11/07 12:27:41;;;;;;;;;;;12.50;99.90;;;;;;5043513;28;20400;-68
2021/11/07 12:30:09;;;;;;;;;;;12.60;99.90;;;;;;5051281;28;19928;-67
2021/11/07 12:32:37;;;;;;;;;;;12.60;99.90;;;;;;5052829;28;19931;-67
2021/11/07 12:35:10;;;;;;;;;;;12.70;99.90;;;;;;5052213;28;19920;-66
2021/11/07 12:40:46;;;;;;;;;;;12.80;99.90;;;;;;5047016;28;19923;-66
2021/11/07 12:43:12;;;;;;;;;;;12.50;99.90;;;;;;5048923;28;20385;-67
2021/11/07 12:45:44;;;;;;;;;;;12.40;99.90;;;;;;5046884;28;19925;-66
2021/11/07 12:48:13;;;;;;;;;;;11.90;99.90;;;;;;5028693;28;20016;-66
2021/11/07 12:50:56;;;;;;;;;;;11.80;99.90;;;;;;5050431;28;19970;-66
2021/11/07 12:53:26;;;;;;;;;;;11.60;99.90;;;;;;5050208;28;19932;-67
2021/11/07 12:55:51;;;;;;;;;;;11.40;99.90;;;;;;5051380;28;19971;-66
2021/11/07 12:58:17;;;;;;;;;;;11.20;99.90;;;;;;5051149;28;19948;-68
2021/11/07 13:00:43;;;;;;;;;;;11.10;99.90;;;;;;5033377;28;20007;-67
2021/11/07 13:03:10;;;;;;;;;;;11.00;99.90;;;;;;5069086;22;19917;-67
2021/11/07 13:05:38;;;;;;;;;;;10.80;99.90;;;;;;5051488;28;19928;-67
2021/11/07 13:08:06;;;;;;;;;;;10.70;99.90;;;;;;5055960;28;20009;-67
2021/11/07 13:11:24;;;;;;;;;;;10.70;99.90;;;;;;5054165;28;19916;-67
2021/11/07 13:13:39;;;;;;;;;;;10.70;99.90;;;;;;5065571;28;19928;-67
2021/11/07 13:29:08;;;;;;;;;;;11.10;99.90;;;;;;5054830;28;20373;-67
2021/11/07 13:31:42;;;;;;;;;;;11.10;99.90;;;;;;5054524;28;20026;-67
2021/11/07 13:34:09;;;;;;;;;;;11.20;99.90;;;;;;5052968;28;19920;-68
2021/11/07 13:36:38;;;;;;;;;;;11.40;99.90;;;;;;5053570;28;19943;-67
2021/11/07 13:39:04;;;;;;;;;;;11.50;99.90;;;;;;5053660;28;19970;-67
2021/11/07 13:41:30;;;;;;;;;;;11.60;99.90;;;;;;5052726;28;19963;-67
2021/11/07 13:44:02;;;;;;;;;;;11.70;99.90;;;;;;5054508;28;19966;-67
2021/11/07 13:46:27;;;;;;;;;;;11.70;99.90;;;;;;5044973;28;19920;-66
2021/11/07 13:49:01;;;;;;;;;;;11.80;99.90;;;;;;5070312;28;19969;-67
2021/11/07 13:51:27;;;;;;;;;;;11.70;99.90;;;;;;5051455;28;20374;-67
2021/11/07 13:53:57;;;;;;;;;;;11.60;99.90;;;;;;5066601;28;19931;-66
2021/11/07 13:56:22;;;;;;;;;;;11.50;99.90;;;;;;5070364;28;19927;-67
2021/11/07 13:58:48;;;;;;;;;;;11.50;99.90;;;;;;5054060;28;19916;-66
2021/11/07 14:01:14;;;;;;;;;;;11.30;99.90;;;;;;5059477;28;19932;-66
2021/11/07 14:03:43;;;;;;;;;;;11.10;99.90;;;;;;5056769;28;20053;-66
2021/11/07 14:08:58;;;;;;;;;;;10.70;99.90;;;;;;5048162;28;19923;-67
2021/11/07 14:11:24;;;;;;;;;;;10.60;99.90;;;;;;5050699;28;20341;-67
2021/11/07 14:13:50;;;;;;;;;;;10.50;99.90;;;;;;5055350;28;19970;-67
2021/11/07 14:16:26;;;;;;;;;;;10.50;99.90;;;;;;5050898;28;19979;-67
2021/11/07 14:18:51;;;;;;;;;;;10.50;99.90;;;;;;5044984;28;19917;-66
2021/11/07 14:21:18;;;;;;;;;;;10.50;99.90;;;;;;5044103;28;19921;-67
2021/11/07 14:23:53;;;;;;;;;;;10.50;99.90;;;;;;5050898;28;19920;-67
2021/11/07 14:26:24;;;;;;;;;;;10.50;99.90;;;;;;5061575;28;20659;-66
2021/11/07 14:28:54;;;;;;;;;;;10.40;99.90;;;;;;5050291;28;19976;-67
2021/11/07 14:31:27;;;;;;;;;;;10.40;99.90;;;;;;5042011;28;19974;-67
2021/11/07 14:34:06;;;;;;;;;;;10.30;99.90;;;;;;5044434;28;19972;-67
2021/11/07 14:36:40;;;;;;;;;;;10.20;99.90;;;;;;5051080;28;19931;-67
2021/11/07 14:39:15;;;;;;;;;;;10.20;99.90;;;;;;5051465;28;19939;-67
2021/11/07 14:41:51;;;;;;;;;;;10.20;99.90;;;;;;5049291;28;19916;-67
2021/11/07 14:44:31;;;;;;;;;;;10.20;99.90;;;;;;5051516;28;20338;-67
2021/11/07 14:47:42;;;;;;;;;;;10.30;99.90;;;;;;5044712;28;19986;-67
2021/11/07 14:50:30;;;;;;;;;;;10.20;99.90;;;;;;5033650;28;20266;-67
2021/11/07 14:53:07;;;;;;;;;;;10.20;99.90;;;;;;5041866;28;19969;-67
2021/11/07 14:55:47;;;;;;;;;;;10.10;99.90;;;;;;5049852;28;19924;-67
2021/11/07 15:01:15;;;;;;;;;;;10.10;99.90;;;;;;5040734;28;23995;-66
2021/11/07 15:03:54;;;;;;;;;;;10.00;99.90;;;;;;5048056;28;19927;-67
2021/11/07 15:08:55;;;;;;;;;;;10.00;99.90;;;;;;5048558;28;19924;-67
2021/11/07 15:13:59;;;;;;;;;;;10.00;99.90;;;;;;5040408;28;19916;-67
2021/11/07 15:16:49;;;;;;;;;;;10.00;99.90;;;;;;5050939;28;19920;-67
2021/11/07 15:20:29;;;;;;;;;;;9.90;99.90;;;;;;5051451;28;19985;-67
2021/11/07 15:22:37;;;;;;;;;;;9.80;99.90;;;;;;5047496;28;19966;-66
2021/11/07 15:25:06;;;;;;;;;;;9.80;99.90;;;;;;5043898;28;20384;-66
2021/11/07 15:27:31;;;;;;;;;;;9.70;99.90;;;;;;5048597;28;19920;-67
2021/11/07 15:30:01;;;;;;;;;;;9.80;99.90;;;;;;5046341;28;19977;-66
2021/11/07 15:32:29;;;;;;;;;;;9.70;99.90;;;;;;5051590;28;19924;-67
2021/11/07 15:34:57;;;;;;;;;;;9.60;99.90;;;;;;5056573;28;19923;-67
2021/11/07 15:37:24;;;;;;;;;;;9.50;99.90;;;;;;5062858;28;19916;-67
2021/11/07 15:39:51;;;;;;;;;;;9.50;99.90;;;;;;5070030;28;19924;-67
2021/11/07 15:42:23;;;;;;;;;;;9.40;99.90;;;;;;5046562;28;19946;-67
2021/11/07 15:45:02;;;;;;;;;;;9.20;99.90;;;;;;5049745;28;19928;-67
2021/11/07 15:47:31;;;;;;;;;;;9.20;99.90;;;;;;5054799;28;19916;-67
2021/11/07 16:00:54;;;;;;;;;;;9.10;99.90;;;;;;5049984;28;19924;-67
2021/11/07 16:03:32;;;;;;;;;;;9.10;99.90;;;;;;5046610;28;19923;-67
2021/11/07 16:06:13;;;;;;;;;;;9.10;99.90;;;;;;5048052;28;19928;-67
2021/11/07 16:11:31;;;;;;;;;;;9.10;99.90;;;;;;5052474;28;19920;-67
2021/11/07 16:19:30;;;;;;;;;;;9.00;99.90;;;;;;5045035;28;19916;-67
2021/11/07 16:21:52;;;;;;;;;;;9.00;99.90;;;;;;5060202;28;19916;-68
2021/11/07 16:24:25;;;;;;;;;;;9.00;99.90;;;;;;5071059;28;19961;-67
2021/11/07 16:26:54;;;;;;;;;;;9.00;99.90;;;;;;5054461;28;19963;-67
2021/11/07 16:29:28;;;;;;;;;;;8.90;99.90;;;;;;5049847;28;20035;-67
2021/11/07 16:32:45;;;;;;;;;;;8.90;99.90;;;;;;5051895;28;20391;-67
2021/11/07 16:34:53;;;;;;;;;;;8.80;99.90;;;;;;5038963;28;20404;-67
2021/11/07 16:37:22;;;;;;;;;;;8.70;99.90;;;;;;5053087;28;19939;-67
2021/11/07 16:39:59;;;;;;;;;;;8.70;99.90;;;;;;5049794;28;19920;-67
2021/11/07 16:42:25;;;;;;;;;;;8.60;99.90;;;;;;5053912;28;19942;-67
2021/11/07 16:44:50;;;;;;;;;;;8.60;99.90;;;;;;5054063;28;20366;-67
2021/11/07 16:47:22;;;;;;;;;;;8.70;99.90;;;;;;5055961;28;20441;-67
2021/11/07 16:49:48;;;;;;;;;;;8.70;99.90;;;;;;5056190;28;20392;-67
2021/11/07 16:52:17;;;;;;;;;;;8.70;99.90;;;;;;5054029;28;19920;-67
2021/11/07 16:54:50;;;;;;;;;;;8.80;99.90;;;;;;5039427;28;19920;-67
2021/11/07 16:57:19;;;;;;;;;;;8.70;99.90;;;;;;5056240;28;19920;-67
2021/11/07 17:00:02;;;;;;;;;;;8.70;99.90;;;;;;5056105;28;19990;-67
2021/11/07 17:02:39;;;;;;;;;;;8.60;99.90;;;;;;5056535;28;19917;-67
2021/11/07 17:05:21;;;;;;;;;;;8.50;99.90;;;;;;5056126;28;19991;-67
2021/11/07 17:10:12;;;;;;;;;;;8.40;99.90;;;;;;5056551;28;19970;-67
2021/11/07 17:12:45;;;;;;;;;;;8.30;99.90;;;;;;5074196;28;19953;-67